Time;durP1;ratioP1;P1;durP2;ratioP2;P2;SDS_P1;SDS_P2;PMS_P1;PMS_P2;Temp;Humidity;BMP_temperature;BMP_pressure;BME280_temperature;BME280_humidity;BME280_pressure;Samples;Min_cycle;Max_cycle;Signal;HPM_P1;HPM_P2
2022/06/23 00:00:32;;;;;;;3.30;3.00;;;;;;;17.38;60.19;100704.41;4974801;28;20105;-82
2022/06/23 00:03:01;;;;;;;3.47;3.28;;;;;;;17.32;60.42;100711.66;4983103;28;20049;-84
2022/06/23 00:05:40;;;;;;;4.55;3.40;;;;;;;17.28;60.95;100711.84;4972303;28;20056;-83
2022/06/23 00:08:14;;;;;;;5.63;3.33;;;;;;;17.24;61.39;100708.44;4983178;28;20548;-83
2022/06/23 00:10:47;;;;;;;3.45;3.25;;;;;;;17.20;61.20;100718.25;4991473;28;20592;-83
2022/06/23 00:13:38;;;;;;;3.40;3.10;;;;;;;17.11;62.72;100718.59;4984319;28;20704;-82
2022/06/23 00:16:07;;;;;;;4.13;3.58;;;;;;;17.15;62.31;100717.56;4987910;28;20054;-87
2022/06/23 00:18:37;;;;;;;4.45;3.45;;;;;;;17.14;62.26;100712.31;4977843;28;20476;-83
2022/06/23 00:21:23;;;;;;;4.18;3.42;;;;;;;17.13;63.02;100708.84;4974557;28;20141;-84
2022/06/23 00:23:59;;;;;;;4.50;3.75;;;;;;;17.11;63.23;100718.59;4990778;28;20038;-81
2022/06/23 00:26:33;;;;;;;4.38;3.63;;;;;;;17.09;63.18;100720.44;4984591;28;20081;-84
2022/06/23 00:29:05;;;;;;;5.18;3.70;;;;;;;17.03;63.96;100721.50;4983849;28;20094;-81
2022/06/23 00:31:43;;;;;;;7.77;4.37;;;;;;;17.01;63.83;100723.34;4969249;28;20055;-83
2022/06/23 00:34:30;;;;;;;4.28;3.88;;;;;;;16.95;63.96;100712.97;5000761;28;20618;-82
2022/06/23 00:37:19;;;;;;;4.05;3.15;;;;;;;16.89;64.22;100713.16;4969692;28;20133;-82
2022/06/23 00:40:00;;;;;;;2.72;2.50;;;;;;;16.83;64.92;100710.72;4980563;28;20054;-83
2022/06/23 00:42:36;;;;;;;4.80;3.17;;;;;;;16.76;64.53;100707.41;4982329;28;20043;-83
2022/06/23 00:45:12;;;;;;;4.40;3.10;;;;;;;16.71;64.38;100709.34;4984883;28;20046;-83
2022/06/23 00:47:51;;;;;;;3.28;3.00;;;;;;;16.63;64.80;100704.31;4986681;28;20101;-83
2022/06/23 00:50:40;;;;;;;5.03;3.20;;;;;;;16.63;65.45;100708.75;4978314;28;20629;-83
2022/06/23 00:53:13;;;;;;;8.50;4.13;;;;;;;16.58;66.07;100706.25;4979333;28;20054;-82
2022/06/23 00:56:01;;;;;;;4.27;3.57;;;;;;;16.58;65.63;100710.69;4981687;28;20046;-83
2022/06/23 00:58:49;;;;;;;6.40;3.50;;;;;;;16.54;65.61;100720.47;4982909;28;20077;-83
2022/06/23 01:01:31;;;;;;;4.25;3.85;;;;;;;16.52;66.17;100717.03;4960798;28;20039;-83
2022/06/23 01:04:37;;;;;;;4.03;3.35;;;;;;;16.48;66.47;100721.56;4985983;28;20141;-82
2022/06/23 01:07:40;;;;;;;5.38;3.72;;;;;;;16.45;66.22;100731.34;4975926;28;20088;-82
2022/06/23 01:10:43;;;;;;;3.22;3.03;;;;;;;16.41;66.07;100735.88;4977096;28;20047;-84
2022/06/23 01:13:36;;;;;;;3.90;3.60;;;;;;;16.32;66.99;100733.53;4963213;28;20053;-81
2022/06/23 01:16:13;;;;;;;5.93;4.38;;;;;;;16.30;66.62;100736.22;4980098;28;20039;-82
2022/06/23 01:18:47;;;;;;;4.70;2.90;;;;;;;16.27;66.78;100735.44;4981734;28;20057;-82
2022/06/23 01:21:28;;;;;;;4.47;3.80;;;;;;;16.24;67.19;100730.25;4978890;28;20082;-83
2022/06/23 01:24:26;;;;;;;7.68;3.78;;;;;;;16.25;67.51;100737.28;4982338;28;20046;-82
2022/06/23 01:27:06;;;;;;;5.25;3.97;;;;;;;16.24;67.71;100739.03;4979479;28;20070;-85
2022/06/23 01:29:46;;;;;;;5.53;3.63;;;;;;;16.23;67.76;100737.34;4983956;28;20055;-84
2022/06/23 01:32:37;;;;;;;4.90;3.70;;;;;;;16.19;68.44;100733.03;4983018;28;20051;-81
2022/06/23 01:35:29;;;;;;;5.38;3.85;;;;;;;16.17;68.39;100729.59;4983187;28;20057;-87
2022/06/23 01:38:25;;;;;;;4.88;3.97;;;;;;;16.16;68.12;100727.88;4988828;28;20061;-82
2022/06/23 01:40:58;;;;;;;4.57;4.13;;;;;;;16.14;68.39;100732.31;4984469;28;20114;-83
2022/06/23 01:43:59;;;;;;;5.20;4.20;;;;;;;16.12;69.22;100729.72;4986204;28;20057;-83
2022/06/23 01:46:35;;;;;;;5.28;3.88;;;;;;;16.09;68.75;100732.47;4980487;28;20070;-82
2022/06/23 01:49:26;;;;;;;3.95;3.50;;;;;;;16.05;69.63;100738.75;4980044;28;20391;-84
2022/06/23 01:51:56;;;;;;;6.00;4.20;;;;;;;15.99;69.56;100731.88;4970679;28;20061;-82
2022/06/23 01:54:22;;;;;;;6.10;4.13;;;;;;;15.99;69.64;100723.94;4981685;28;20804;-82
2022/06/23 01:57:07;;;;;;;5.93;3.78;;;;;;;15.97;69.78;100723.16;4964579;28;20129;-83
2022/06/23 01:59:51;;;;;;;8.32;4.00;;;;;;;15.98;70.57;100718.72;4981170;28;20047;-85
2022/06/23 02:02:43;;;;;;;7.95;4.10;;;;;;;15.93;70.37;100718.88;4962773;28;20061;-82
2022/06/23 02:05:22;;;;;;;4.80;4.13;;;;;;;15.87;71.26;100711.13;4972680;28;20512;-82
2022/06/23 02:08:03;;;;;;;4.60;4.20;;;;;;;15.83;71.63;100710.34;4982707;28;20133;-85
2022/06/23 02:10:53;;;;;;;4.78;4.35;;;;;;;15.81;71.59;100709.56;4980957;28;20761;-82
2022/06/23 02:13:33;;;;;;;8.23;5.20;;;;;;;15.74;71.62;100713.25;4982058;28;20122;-82
2022/06/23 02:16:14;;;;;;;4.95;4.43;;;;;;;15.70;72.26;100717.75;4977272;28;21230;-80
2022/06/23 02:18:49;;;;;;;8.07;4.40;;;;;;;15.63;72.26;100710.03;4996924;28;20039;-83
2022/06/23 02:21:40;;;;;;;6.63;4.03;;;;;;;15.59;72.46;100717.22;4981278;28;20056;-82
2022/06/23 02:24:32;;;;;;;6.82;4.97;;;;;;;15.54;73.17;100719.97;4980174;28;20034;-82
2022/06/23 02:27:09;;;;;;;5.35;4.47;;;;;;;15.51;72.96;100716.53;4965818;28;20505;-81
2022/06/23 02:29:55;;;;;;;7.85;4.93;;;;;;;15.46;73.32;100714.06;4963753;28;20061;-84
2022/06/23 02:32:31;;;;;;;5.72;4.68;;;;;;;15.38;73.87;100714.25;4981580;28;20137;-84
2022/06/23 02:35:10;;;;;;;6.93;4.28;;;;;;;15.32;73.71;100716.22;4978280;28;20043;-83
2022/06/23 02:38:13;;;;;;;7.05;4.80;;;;;;;15.28;74.47;100711.91;4978748;28;20050;-82
2022/06/23 02:41:05;;;;;;;4.05;3.75;;;;;;;15.24;74.86;100718.19;4978712;28;20125;-82
2022/06/23 02:43:46;;;;;;;6.93;4.35;;;;;;;15.17;74.34;100720.97;4979125;28;20150;-82
2022/06/23 02:46:40;;;;;;;5.70;4.35;;;;;;;15.14;74.89;100721.06;4981117;28;20093;-83
2022/06/23 02:49:21;;;;;;;;;;;;;;;15.10;75.80;100722.06;4979013;28;20450;-82
2022/06/23 02:52:10;;;;;;;8.57;4.50;;;;;;;15.08;75.32;100720.38;4976409;28;19925;-84
2022/06/23 02:55:15;;;;;;;9.43;4.53;;;;;;;15.05;75.94;100721.31;4978096;28;20038;-83
2022/06/23 02:58:08;;;;;;;9.18;5.20;;;;;;;15.03;75.75;100717.84;4971084;28;20039;-83
2022/06/23 03:01:03;;;;;;;5.40;4.90;;;;;;;15.02;76.59;100726.69;4973083;28;20649;-84
2022/06/23 03:04:04;;;;;;;5.32;4.15;;;;;;;15.00;76.57;100725.84;4978027;28;20130;-82
2022/06/23 03:07:01;;;;;;;4.75;4.15;;;;;;;14.95;76.37;100719.81;4973961;28;20050;-82
2022/06/23 03:09:38;;;;;;;5.18;4.25;;;;;;;14.91;76.80;100713.75;4979009;28;20039;-82
2022/06/23 03:12:14;;;;;;;5.68;4.75;;;;;;;14.89;76.84;100716.44;4977578;28;20038;-84
2022/06/23 03:15:11;;;;;;;7.00;4.80;;;;;;;14.91;77.38;100710.28;4961321;28;20046;-85
2022/06/23 03:17:47;;;;;;;8.52;4.82;;;;;;;14.88;77.04;100719.97;4977141;28;20042;-83
2022/06/23 03:20:44;;;;;;;5.65;4.20;;;;;;;14.87;77.32;100705.09;4966417;28;20911;-83
2022/06/23 03:23:26;;;;;;;7.05;4.43;;;;;;;14.87;77.95;100706.84;4964106;28;20620;-82
2022/06/23 03:26:07;;;;;;;5.30;4.38;;;;;;;14.89;77.54;100705.91;4978466;28;20572;-83
2022/06/23 03:29:18;;;;;;;5.85;5.30;;;;;;;14.86;77.25;100710.38;4979283;28;20437;-85
2022/06/23 03:32:10;;;;;;;9.27;5.97;;;;;;;14.83;77.66;100707.81;4909198;29;20123;-82
2022/06/23 03:34:49;;;;;;;10.43;5.80;;;;;;;14.81;78.38;100714.91;4973773;28;20061;-82
2022/06/23 03:37:36;;;;;;;6.45;5.50;;;;;;;14.79;77.95;100717.56;4979269;28;20047;-82
2022/06/23 03:43:32;;;;;;;5.97;5.05;;;;;;;14.72;78.25;100723.91;4965403;28;20042;-83
2022/06/23 03:46:13;;;;;;;8.88;5.15;;;;;;;14.71;78.86;100728.31;4977574;28;20161;-82
2022/06/23 03:48:53;;;;;;;11.23;4.95;;;;;;;14.72;78.39;100735.31;4977824;28;20142;-83
2022/06/23 03:51:26;;;;;;;7.07;5.18;;;;;;;14.72;78.24;100745.00;4977835;28;20061;-82
2022/06/23 03:54:03;;;;;;;;;;;;;;;14.75;78.40;100739.66;4977601;28;20078;-82
2022/06/23 03:56:42;;;;;;;9.07;4.63;;;;;;;14.78;78.04;100750.09;4963627;28;20012;-82
2022/06/23 03:59:26;;;;;;;6.03;5.10;;;;;;;14.83;77.96;100750.00;4967352;28;20167;-84
2022/06/23 04:02:11;;;;;;;8.45;4.97;;;;;;;14.86;77.73;100752.53;4974855;28;20054;-83
2022/06/23 04:05:00;;;;;;;6.82;4.97;;;;;;;14.93;77.39;100753.25;4976524;28;20097;-83
2022/06/23 04:07:41;;;;;;;5.90;5.10;;;;;;;14.97;76.95;100750.50;4984381;28;20051;-85
2022/06/23 04:10:19;;;;;;;5.72;5.20;;;;;;;15.04;76.93;100745.94;4977106;28;20043;-80
2022/06/23 04:12:53;;;;;;;7.95;4.78;;;;;;;15.08;76.49;100746.72;4964332;28;20061;-86
2022/06/23 04:15:32;;;;;;;5.28;4.82;;;;;;;15.13;76.48;100750.13;4978683;28;20047;-83
2022/06/23 04:18:05;;;;;;;14.18;5.75;;;;;;;15.16;76.30;100743.00;4973763;28;20043;-82
2022/06/23 04:20:41;;;;;;;;;;;;;;;15.17;76.55;100747.34;4977511;28;20046;-85
2022/06/23 04:23:22;;;;;;;7.78;5.15;;;;;;;15.21;75.74;100746.38;4954716;28;19922;-80
2022/06/23 04:26:04;;;;;;;5.07;4.32;;;;;;;15.27;75.25;100758.53;4973316;28;20079;-82
2022/06/23 04:28:45;;;;;;;4.95;4.38;;;;;;;15.36;75.16;100753.00;4984545;28;20477;-83
2022/06/23 04:31:28;;;;;;;7.68;5.43;;;;;;;15.45;73.93;100758.91;4969453;28;20046;-82
2022/06/23 04:33:56;;;;;;;9.93;4.82;;;;;;;15.47;73.89;100746.56;4963476;28;20051;-81
2022/06/23 04:36:32;;;;;;;5.45;4.30;;;;;;;15.50;73.78;100757.00;4987659;28;20054;-83
2022/06/23 04:39:08;;;;;;;8.52;5.75;;;;;;;15.56;73.08;100756.84;4973065;28;20059;-83
2022/06/23 04:41:48;;;;;;;7.93;5.13;;;;;;;15.65;72.89;100758.38;4981957;28;20046;-82
2022/06/23 04:44:27;;;;;;;5.18;4.63;;;;;;;15.69;72.28;100760.00;4970039;28;20050;-83
2022/06/23 04:46:59;;;;;;;8.20;5.13;;;;;;;15.71;71.93;100756.41;4984553;28;20042;-82
2022/06/23 04:49:39;;;;;;;6.60;5.70;;;;;;;15.72;71.58;100765.19;4989840;28;20110;-81
2022/06/23 04:52:19;;;;;;;5.55;4.78;;;;;;;15.72;71.76;100770.47;4987336;28;20050;-82
2022/06/23 04:54:55;;;;;;;7.28;4.25;;;;;;;15.72;71.74;100759.91;4980797;28;20082;-83
2022/06/23 04:57:29;;;;;;;7.20;4.88;;;;;;;15.76;71.56;100764.22;4983377;28;20501;-81
2022/06/23 05:00:02;;;;;;;4.82;4.38;;;;;;;15.82;71.53;100768.47;4971926;28;20129;-82
2022/06/23 05:02:48;;;;;;;6.90;4.10;;;;;;;15.89;71.19;100764.72;4983950;28;20054;-83
2022/06/23 05:05:21;;;;;;;5.95;4.80;;;;;;;15.98;70.83;100766.25;4966721;28;20154;-81
2022/06/23 05:08:11;;;;;;;6.88;5.47;;;;;;;16.02;70.39;100774.03;4983265;28;20038;-82
2022/06/23 05:11:00;;;;;;;7.53;4.28;;;;;;;16.07;70.38;100768.59;4980022;28;20086;-82
2022/06/23 05:13:56;;;;;;;7.88;4.90;;;;;;;16.12;69.86;100763.19;4978522;28;20090;-85
2022/06/23 05:16:39;;;;;;;10.48;4.57;;;;;;;16.14;69.82;100764.88;4983931;28;20051;-83
2022/06/23 05:19:25;;;;;;;8.40;4.88;;;;;;;16.15;69.71;100761.34;4964245;28;20832;-83
2022/06/23 05:22:18;;;;;;;8.02;4.47;;;;;;;16.19;69.93;100760.34;4982594;28;20137;-81
2022/06/23 05:24:47;;;;;;;4.70;4.30;;;;;;;16.27;69.44;100765.38;4984265;28;20090;-83
2022/06/23 05:27:28;;;;;;;8.55;5.50;;;;;;;16.36;69.33;100761.56;4976912;28;20053;-83
2022/06/23 05:30:23;;;;;;;5.32;4.30;;;;;;;16.44;68.91;100767.50;4972165;28;20034;-82
2022/06/23 05:32:57;;;;;;;6.00;3.72;;;;;;;16.51;68.59;100761.09;4981909;28;20102;-82
2022/06/23 05:35:43;;;;;;;9.40;4.80;;;;;;;16.58;68.14;100760.91;4970544;28;20042;-82
2022/06/23 05:38:14;;;;;;;14.48;4.07;;;;;;;16.63;68.25;100757.19;4965396;28;20070;-82
2022/06/23 05:41:02;;;;;;;6.05;3.78;;;;;;;16.69;67.59;100756.13;4990344;28;20043;-84
2022/06/23 05:43:33;;;;;;;5.88;3.95;;;;;;;16.72;67.85;100761.31;4984512;28;20477;-83
2022/06/23 05:46:04;;;;;;;5.90;4.88;;;;;;;16.80;67.49;100759.25;4979348;28;20042;-85
2022/06/23 05:48:42;;;;;;;8.85;4.43;;;;;;;16.83;67.55;100758.31;4992746;28;20048;-86
2022/06/23 05:51:11;;;;;;;11.98;4.72;;;;;;;16.92;67.31;100754.53;4992530;28;20047;-85
2022/06/23 05:54:04;;;;;;;5.13;4.13;;;;;;;17.05;67.02;100762.91;4993478;28;20056;-82
2022/06/23 05:56:50;;;;;;;7.30;4.47;;;;;;;17.12;66.42;100764.44;5006188;28;20050;-84
2022/06/23 05:59:47;;;;;;;5.03;3.92;;;;;;;17.17;66.35;100770.44;4988109;28;20065;-81
2022/06/23 06:02:22;;;;;;;4.55;3.40;;;;;;;17.23;66.28;100759.63;5001812;28;20030;-81
2022/06/23 06:04:55;;;;;;;5.70;4.22;;;;;;;17.28;65.60;100772.69;4983674;28;20091;-83
2022/06/23 06:07:29;;;;;;;4.60;3.15;;;;;;;17.25;65.96;100759.56;4985396;28;20638;-82
2022/06/23 06:09:56;;;;;;;10.35;3.72;;;;;;;17.32;65.94;100767.22;4982758;28;20588;-83
2022/06/23 06:12:32;;;;;;;6.60;4.53;;;;;;;17.40;65.53;100766.09;4983798;28;20442;-85
2022/06/23 06:15:06;;;;;;;6.55;3.42;;;;;;;17.44;64.86;100773.91;4985130;28;20049;-81
2022/06/23 06:17:38;;;;;;;5.07;4.07;;;;;;;17.46;64.91;100766.75;5001526;28;20038;-82
2022/06/23 06:20:10;;;;;;;4.53;3.75;;;;;;;17.51;64.67;100772.75;4985290;28;20437;-84
2022/06/23 06:23:01;;;;;;;6.28;3.55;;;;;;;17.58;64.42;100767.22;4980357;28;20081;-82
2022/06/23 06:25:34;;;;;;;5.03;3.92;;;;;;;17.73;64.43;100771.09;4981192;28;20042;-82
2022/06/23 06:28:23;;;;;;;3.67;3.38;;;;;;;17.83;63.95;100768.06;4981668;28;20046;-84
2022/06/23 06:31:34;;;;;;;4.38;3.47;;;;;;;17.94;63.38;100766.78;4973034;28;20429;-86
2022/06/23 06:34:13;;;;;;;7.10;3.90;;;;;;;17.98;63.17;100760.50;4931505;28;20049;-85
2022/06/23 06:36:46;;;;;;;5.28;3.78;;;;;;;18.04;62.88;100756.72;4986227;28;20827;-82
2022/06/23 06:39:33;;;;;;;;;;;;;;;18.07;62.26;100761.91;4986048;28;20182;-85
2022/06/23 06:42:14;;;;;;;4.03;3.10;;;;;;;18.12;62.07;100770.53;4966510;28;19928;-83
2022/06/23 06:44:47;;;;;;;4.88;4.13;;;;;;;18.13;61.98;100762.56;4969119;28;20081;-84
2022/06/23 06:47:29;;;;;;;6.03;3.42;;;;;;;18.16;61.96;100761.53;4965364;28;20707;-82
2022/06/23 06:50:02;;;;;;;6.47;3.65;;;;;;;18.20;61.98;100760.53;4982699;28;20038;-85
2022/06/23 06:52:29;;;;;;;4.85;3.42;;;;;;;18.30;62.05;100761.88;4982942;28;20172;-83
2022/06/23 06:55:10;;;;;;;7.15;3.28;;;;;;;18.45;60.88;100760.41;4969249;28;20445;-86
2022/06/23 06:57:45;;;;;;;13.77;3.40;;;;;;;18.56;60.92;100764.41;4981178;28;20841;-85
2022/06/23 07:00:28;;;;;;;5.68;3.42;;;;;;;18.64;60.72;100765.84;4984190;28;20477;-86
2022/06/23 07:03:04;;;;;;;6.60;4.28;;;;;;;18.66;60.10;100773.72;4984044;28;20513;-88
2022/06/23 07:05:55;;;;;;;8.15;3.60;;;;;;;18.72;60.68;100781.44;4980498;28;20472;-85
2022/06/23 07:08:43;;;;;;;5.57;3.15;;;;;;;18.80;60.39;100786.41;5000098;28;20050;-83
2022/06/23 07:11:37;;;;;;;4.32;3.70;;;;;;;18.88;59.82;100783.41;5000772;28;20401;-80
2022/06/23 07:14:22;;;;;;;4.45;3.50;;;;;;;18.98;59.47;100777.72;4983408;28;20488;-82
2022/06/23 07:17:24;;;;;;;5.05;3.38;;;;;;;19.14;59.29;100769.13;4979979;28;20053;-86
2022/06/23 07:19:59;;;;;;;5.63;3.42;;;;;;;19.30;58.96;100777.25;4984959;28;20045;-84
2022/06/23 07:22:35;;;;;;;7.72;3.78;;;;;;;19.40;58.68;100772.41;4985748;28;20045;-82
2022/06/23 07:25:13;;;;;;;3.20;2.90;;;;;;;19.56;58.05;100772.59;4982478;28;20126;-83
2022/06/23 07:27:53;;;;;;;6.80;3.30;;;;;;;19.85;57.15;100775.75;4965817;28;20054;-84
2022/06/23 07:30:54;;;;;;;8.38;4.00;;;;;;;20.39;55.75;100771.44;4965462;28;20045;-82
2022/06/23 07:33:30;;;;;;;4.45;2.92;;;;;;;21.19;52.48;100769.28;4984763;28;20050;-81
2022/06/23 07:36:17;;;;;;;4.97;2.97;;;;;;;21.86;50.87;100771.16;4966623;28;20504;-83
2022/06/23 07:39:17;;;;;;;3.00;2.80;;;;;;;22.72;47.28;100769.03;4982210;28;20073;-85
2022/06/23 07:41:53;;;;;;;4.28;2.90;;;;;;;23.35;46.85;100760.88;4968292;28;20159;-84
2022/06/23 07:44:33;;;;;;;3.33;2.33;;;;;;;23.85;44.93;100759.56;4996837;28;20046;-83
2022/06/23 07:47:04;;;;;;;5.15;3.20;;;;;;;24.30;43.93;100764.78;4968898;28;20169;-83
2022/06/23 07:49:33;;;;;;;6.43;2.78;;;;;;;24.77;42.35;100758.13;4982761;28;20052;-84
2022/06/23 07:52:02;;;;;;;3.38;2.90;;;;;;;25.32;41.70;100752.63;4982350;28;20062;-83
2022/06/23 07:54:38;;;;;;;6.13;2.88;;;;;;;25.78;40.16;100750.38;4966620;28;20042;-85
2022/06/23 07:57:09;;;;;;;4.00;2.22;;;;;;;26.20;40.00;100754.47;5002177;28;20078;-85
2022/06/23 07:59:45;;;;;;;3.28;2.75;;;;;;;26.66;38.60;100742.16;4970884;28;20053;-84
2022/06/23 08:02:47;;;;;;;7.63;3.05;;;;;;;27.07;36.36;100754.25;4990925;28;20322;-82
2022/06/23 08:05:23;;;;;;;8.40;2.70;;;;;;;27.61;37.22;100751.06;4974461;28;20120;-85
2022/06/23 08:07:56;;;;;;;5.78;2.80;;;;;;;27.86;36.09;100752.63;4968410;28;20070;-85
2022/06/23 08:10:30;;;;;;;5.00;2.78;;;;;;;28.09;36.16;100748.13;4988215;28;20060;-85
2022/06/23 08:13:25;;;;;;;3.60;2.42;;;;;;;28.26;35.61;100751.28;4974719;28;20053;-83
2022/06/23 08:18:52;;;;;;;4.72;2.78;;;;;;;29.08;34.22;100755.22;4970723;28;20481;-85
2022/06/23 08:21:30;;;;;;;3.17;2.50;;;;;;;29.64;33.04;100751.31;4989242;28;20121;-83
2022/06/23 08:24:12;;;;;;;4.93;3.00;;;;;;;30.43;31.76;100752.38;4973630;28;20042;-83
2022/06/23 08:26:46;;;;;;;4.07;2.10;;;;;;;30.69;31.26;100758.13;4988080;28;20069;-83
2022/06/23 08:29:17;;;;;;;4.15;2.25;;;;;;;30.74;30.61;100745.03;4973268;28;20069;-82
2022/06/23 08:31:44;;;;;;;3.97;2.15;;;;;;;30.96;30.41;100751.97;4989762;28;20057;-84
2022/06/23 08:34:11;;;;;;;5.95;4.72;;;;;;;31.08;29.95;100749.13;4970065;28;20100;-84
2022/06/23 08:36:49;;;;;;;4.70;2.30;;;;;;;30.92;29.88;100747.81;5001775;28;20030;-84
2022/06/23 08:39:25;;;;;;;4.05;2.38;;;;;;;31.24;29.76;100748.50;5003338;28;20045;-85
2022/06/23 08:42:17;;;;;;;1.85;1.75;;;;;;;31.57;29.33;100747.13;4973589;28;20050;-83
2022/06/23 08:44:59;;;;;;;2.75;2.33;;;;;;;31.71;29.07;100739.53;4985032;28;20393;-87
2022/06/23 08:47:55;;;;;;;7.25;5.20;;;;;;;32.59;27.86;100734.44;5007201;28;20061;-88
2022/06/23 08:50:40;;;;;;;2.60;2.00;;;;;;;33.47;26.91;100738.97;4974560;28;20428;-84
2022/06/23 08:53:34;;;;;;;5.80;2.00;;;;;;;34.27;25.66;100740.44;4989532;28;20128;-83
2022/06/23 08:56:11;;;;;;;6.60;1.98;;;;;;;34.86;25.52;100736.81;4978511;28;20579;-83
2022/06/23 08:58:46;;;;;;;9.65;2.20;;;;;;;35.13;25.22;100742.88;4990586;28;20038;-82
2022/06/23 09:01:21;;;;;;;9.00;2.33;;;;;;;35.69;24.08;100731.19;4994315;28;20069;-85
2022/06/23 09:04:02;;;;;;;5.75;1.77;;;;;;;35.57;23.59;100730.72;4973808;28;20476;-82
2022/06/23 09:06:34;;;;;;;2.58;2.03;;;;;;;35.55;23.40;100733.63;5003890;28;20045;-84
2022/06/23 09:09:22;;;;;;;3.05;2.00;;;;;;;35.77;23.29;100736.59;4985561;28;20140;-83
2022/06/23 09:12:31;;;;;;;1.85;1.75;;;;;;;36.46;22.58;100733.16;4992430;28;20119;-84
2022/06/23 09:15:54;;;;;;;3.10;1.80;;;;;;;36.83;21.93;100726.06;4987494;28;20041;-85
2022/06/23 09:19:10;;;;;;;1.60;1.50;;;;;;;37.14;21.24;100726.94;4941664;28;20483;-84
2022/06/23 09:22:54;;;;;;;2.15;1.85;;;;;;;37.41;20.52;100736.38;4981978;28;20133;-86
2022/06/23 09:25:54;;;;;;;2.67;1.92;;;;;;;37.16;20.83;100728.44;4977219;28;20062;-89
2022/06/23 09:28:32;;;;;;;2.15;1.83;;;;;;;37.60;20.74;100731.38;4970145;28;20510;-84
2022/06/23 09:31:32;;;;;;;5.57;1.92;;;;;;;37.80;20.34;100729.78;4995607;28;20085;-91
2022/06/23 09:34:43;;;;;;;1.80;1.60;;;;;;;38.38;19.33;100729.81;5003890;28;20058;-83
2022/06/23 09:37:42;;;;;;;1.92;1.70;;;;;;;38.17;19.78;100721.56;4993112;28;20050;-89
2022/06/23 09:40:54;;;;;;;1.80;1.70;;;;;;;38.46;19.14;100722.50;5001937;28;20064;-91
2022/06/23 09:44:22;;;;;;;3.30;3.10;;;;;;;38.41;18.07;100723.09;4991663;28;20070;-88
2022/06/23 09:47:17;;;;;;;2.53;1.70;;;;;;;38.25;17.22;100721.41;4988498;28;20105;-91
2022/06/23 09:49:59;;;;;;;1.75;1.50;;;;;;;38.20;18.72;100722.03;4995661;28;20125;-85
2022/06/23 09:53:07;;;;;;;1.90;1.52;;;;;;;39.12;18.03;100713.13;4990061;28;20066;-84
2022/06/23 09:56:05;;;;;;;2.03;1.15;;;;;;;40.25;17.14;100720.16;4972805;28;20129;-82
2022/06/23 09:58:58;;;;;;;1.25;1.25;;;;;;;40.95;16.55;100712.41;4984789;28;20528;-84
2022/06/23 10:01:47;;;;;;;1.65;1.48;;;;;;;41.10;15.48;100709.44;4989463;28;20042;-87
2022/06/23 10:05:02;;;;;;;1.77;1.67;;;;;;;40.78;15.95;100706.53;4979467;28;20042;-83
2022/06/23 10:08:11;;;;;;;2.58;1.55;;;;;;;40.58;15.78;100701.03;4976180;28;20084;-83
2022/06/23 10:11:37;;;;;;;0.90;0.90;;;;;;;40.68;15.58;100701.44;5001826;28;20157;-87
2022/06/23 10:14:33;;;;;;;4.57;1.63;;;;;;;40.72;15.56;100701.88;4999828;28;20072;-84
2022/06/23 10:17:24;;;;;;;3.92;1.10;;;;;;;41.26;14.98;100701.78;4991077;28;20044;-83
2022/06/23 10:20:13;;;;;;;8.37;1.43;;;;;;;41.42;14.82;100697.75;4975058;28;20149;-84
2022/06/23 10:23:27;;;;;;;4.15;1.20;;;;;;;41.93;14.21;100699.63;4989332;28;20344;-83
2022/06/23 10:26:27;;;;;;;1.17;1.17;;;;;;;42.65;14.55;100690.22;5002686;28;20046;-85
2022/06/23 10:29:03;;;;;;;3.38;1.60;;;;;;;43.23;14.13;100690.94;4983074;28;20046;-86
2022/06/23 10:32:15;;;;;;;1.88;1.73;;;;;;;43.17;13.36;100691.84;4986276;28;20050;-87
2022/06/23 10:35:30;;;;;;;2.40;1.40;;;;;;;42.81;13.04;100689.66;4982898;28;20056;-85
2022/06/23 10:38:28;;;;;;;4.55;3.00;;;;;;;42.26;13.26;100693.09;4981886;28;20046;-85
2022/06/23 10:41:27;;;;;;;6.00;1.20;;;;;;;42.34;13.29;100691.13;5002663;28;20046;-84
2022/06/23 10:44:26;;;;;;;4.18;1.20;;;;;;;42.59;12.66;100672.69;5001657;28;20749;-85
2022/06/23 10:47:36;;;;;;;3.55;1.35;;;;;;;43.10;12.97;100673.50;4985111;28;20400;-83
2022/06/23 10:50:08;;;;;;;3.03;1.55;;;;;;;43.12;12.83;100671.34;4982914;28;20120;-86
2022/06/23 10:53:11;;;;;;;4.00;1.25;;;;;;;43.16;13.04;100679.16;4994326;28;20062;-87
2022/06/23 10:55:58;;;;;;;2.00;1.30;;;;;;;42.32;13.28;100683.09;4964311;28;20572;-86
2022/06/23 10:59:02;;;;;;;1.40;0.70;;;;;;;42.46;12.78;100675.56;4968849;28;20155;-83
2022/06/23 11:01:55;;;;;;;1.85;1.30;;;;;;;43.11;12.56;100664.16;4967963;28;20045;-85
2022/06/23 11:04:44;;;;;;;4.28;1.20;;;;;;;43.56;12.26;100665.75;4978074;28;20492;-89
2022/06/23 11:08:16;;;;;;;2.80;1.30;;;;;;;42.43;13.33;100665.84;4967064;28;20145;-86
2022/06/23 11:11:27;;;;;;;1.73;1.63;;;;;;;41.70;13.55;100667.19;4977972;28;20481;-84
2022/06/23 11:14:15;;;;;;;4.00;1.83;;;;;;;41.80;13.68;100662.03;5001506;28;20770;-89
2022/06/23 11:17:22;;;;;;;1.65;1.45;;;;;;;41.83;14.24;100658.03;4964415;28;20529;-84
2022/06/23 11:20:21;;;;;;;1.20;1.10;;;;;;;41.63;14.23;100653.47;4968687;28;20408;-86
2022/06/23 11:22:58;;;;;;;1.48;1.20;;;;;;;41.92;14.65;100651.22;4998786;28;20454;-87
2022/06/23 11:25:32;;;;;;;0.57;0.52;;;;;;;41.94;14.56;100649.09;4982087;28;20042;-87
2022/06/23 11:28:31;;;;;;;1.83;1.13;;;;;;;42.78;13.87;100640.56;4967932;28;20057;-87
2022/06/23 11:31:07;;;;;;;1.52;1.20;;;;;;;43.82;13.18;100629.75;4998546;28;20046;-86
2022/06/23 11:34:03;;;;;;;1.55;1.20;;;;;;;44.55;12.77;100630.47;4994151;28;20073;-86
2022/06/23 11:37:14;;;;;;;1.48;1.10;;;;;;;44.68;12.29;100623.88;4970501;28;20144;-84
2022/06/23 11:40:16;;;;;;;5.53;3.78;;;;;;;44.30;12.55;100626.00;4969457;28;20058;-84
2022/06/23 11:43:05;;;;;;;2.58;1.40;;;;;;;44.13;12.89;100619.53;4996352;28;20239;-87
2022/06/23 11:45:53;;;;;;;2.65;1.85;;;;;;;44.73;12.64;100616.59;4997085;28;20125;-87
2022/06/23 11:48:49;;;;;;;2.90;2.30;;;;;;;44.55;13.08;100617.53;4978502;28;20057;-87
2022/06/23 11:51:31;;;;;;;3.25;1.45;;;;;;;44.89;13.05;100608.59;4966144;28;20046;-92
2022/06/23 11:54:40;;;;;;;1.90;1.45;;;;;;;44.88;12.29;100599.50;4948842;28;20077;-90
2022/06/23 11:57:25;;;;;;;1.45;1.15;;;;;;;45.20;12.09;100603.75;4969097;28;20085;-87
2022/06/23 12:00:15;;;;;;;3.13;1.52;;;;;;;45.33;11.96;100599.84;4960106;28;20172;-88
2022/06/23 12:03:30;;;;;;;3.03;0.98;;;;;;;45.63;12.03;100598.78;4963397;28;20223;-87
2022/06/23 12:06:31;;;;;;;1.40;1.08;;;;;;;45.81;11.85;100600.47;4964704;28;20035;-88
2022/06/23 12:09:02;;;;;;;2.05;0.95;;;;;;;46.42;11.68;100585.97;4980181;28;20035;-88
2022/06/23 12:11:34;;;;;;;2.88;0.90;;;;;;;46.63;11.02;100600.94;4962362;28;20031;-86
2022/06/23 12:14:10;;;;;;;1.30;1.00;;;;;;;45.79;11.56;100594.34;4957686;28;20055;-90
2022/06/23 12:17:14;;;;;;;2.88;1.45;;;;;;;45.98;11.54;100590.25;4961636;28;20054;-86
2022/06/23 12:19:41;;;;;;;1.23;1.13;;;;;;;45.79;12.15;100586.03;4962376;28;20290;-85
2022/06/23 12:22:25;;;;;;;1.45;1.17;;;;;;;46.69;11.64;100584.16;4974447;28;20094;-85
2022/06/23 12:25:44;;;;;;;2.05;1.60;;;;;;;47.29;11.35;100583.47;4956063;28;20039;-84
2022/06/23 12:28:35;;;;;;;1.77;1.00;;;;;;;47.30;10.80;100580.44;4945047;28;20051;-88
2022/06/23 12:32:07;;;;;;;0.90;0.90;;;;;;;46.55;11.43;100571.75;4955772;28;20053;-85
2022/06/23 12:34:39;;;;;;;;;;;;;;;46.45;11.34;100580.75;4947363;29;22601;-88
2022/06/23 12:37:41;;;;;;;1.55;0.85;;;;;;;46.50;11.04;100568.94;4923849;29;19922;-87
2022/06/23 12:40:47;;;;;;;2.22;0.82;;;;;;;45.34;11.51;100560.91;4959780;28;20557;-85
2022/06/23 12:43:46;;;;;;;1.67;1.10;;;;;;;45.25;11.71;100560.47;4959523;28;20043;-84
2022/06/23 12:46:25;;;;;;;2.78;0.80;;;;;;;45.99;11.16;100555.16;4963366;28;20043;-83
2022/06/23 12:49:59;;;;;;;3.08;1.48;;;;;;;46.27;11.00;100564.41;4962107;28;20046;-85
2022/06/23 12:52:52;;;;;;;1.08;0.82;;;;;;;47.10;11.08;100547.81;4942742;28;20049;-84
2022/06/23 12:55:28;;;;;;;2.63;1.10;;;;;;;48.23;10.35;100556.34;4970866;28;20531;-87
2022/06/23 12:58:12;;;;;;;4.90;1.27;;;;;;;47.71;10.19;100549.53;4989052;28;20053;-88
2022/06/23 13:00:38;;;;;;;1.08;1.00;;;;;;;47.00;11.05;100548.53;4977690;28;20046;-86